createdAt,value
2023-04-07T00:03:45.833Z,9.74
2023-04-07T00:08:48.500Z,9.75
2023-04-07T00:13:52.735Z,9.50
2023-04-07T00:18:56.053Z,9.85
2023-04-07T00:23:59.114Z,9.74
2023-04-07T00:29:02.994Z,9.74
2023-04-07T00:34:05.943Z,9.65
2023-04-07T00:39:08.711Z,9.75
2023-04-07T00:44:12.951Z,9.79
2023-04-07T00:49:17.737Z,9.89
2023-04-07T00:54:20.722Z,9.96
2023-04-07T00:59:24.933Z,9.96
2023-04-07T01:04:33.250Z,10.00
2023-04-07T01:09:42.038Z,9.99
2023-04-07T01:14:52.505Z,10.06
2023-04-07T01:20:20.452Z,10.18
2023-04-07T01:25:43.404Z,10.20
2023-04-07T01:30:48.879Z,10.30
2023-04-07T01:35:52.750Z,10.39
2023-04-07T01:40:57.305Z,10.37
2023-04-07T01:46:03.460Z,10.40
2023-04-07T01:51:07.277Z,10.48
2023-04-07T01:56:11.272Z,10.48
2023-04-07T02:01:16.630Z,10.48
2023-04-07T02:06:23.419Z,10.45
2023-04-07T02:11:28.099Z,10.49
2023-04-07T02:16:38.486Z,10.44
2023-04-07T02:21:42.172Z,10.44
2023-04-07T02:26:44.752Z,10.46
2023-04-07T02:31:48.716Z,10.48
2023-04-07T02:36:51.488Z,10.48
2023-04-07T02:41:54.027Z,10.50
2023-04-07T02:46:57.895Z,10.46
2023-04-07T02:52:00.999Z,10.43
2023-04-07T02:57:03.757Z,10.44
2023-04-07T03:02:08.189Z,10.38
2023-04-07T03:07:12.380Z,10.46
2023-04-07T03:12:16.761Z,10.39
2023-04-07T03:17:20.720Z,10.43
2023-04-07T03:22:23.390Z,10.39
2023-04-07T03:27:28.856Z,10.33
2023-04-07T03:32:32.958Z,10.35
2023-04-07T03:37:35.848Z,10.31
2023-04-07T03:42:39.225Z,10.27
2023-04-07T03:47:45.449Z,10.27
2023-04-07T03:52:48.615Z,10.31
2023-04-07T03:57:59.824Z,10.26
2023-04-07T04:03:08.077Z,10.22
2023-04-07T04:08:14.581Z,10.24
2023-04-07T04:13:18.171Z,10.27
2023-04-07T04:18:23.673Z,10.23
2023-04-07T04:23:29.022Z,10.24
2023-04-07T04:28:33.554Z,10.19
2023-04-07T04:33:39.895Z,10.19
2023-04-07T04:38:42.548Z,10.25
2023-04-07T04:43:54.237Z,10.18
2023-04-07T04:49:01.420Z,10.19
2023-04-07T04:54:06.348Z,10.18
2023-04-07T04:59:09.543Z,10.14
2023-04-07T05:04:21.220Z,10.07
2023-04-07T05:09:32.790Z,10.00
2023-04-07T05:14:36.026Z,9.99
2023-04-07T05:19:43.959Z,10.07
2023-04-07T05:24:53.391Z,10.03
2023-04-07T05:29:56.142Z,10.08
2023-04-07T05:35:08.484Z,10.11
2023-04-07T05:40:15.433Z,10.17
2023-04-07T05:45:18.288Z,10.09
2023-04-07T05:50:24.964Z,10.05
2023-04-07T05:55:28.316Z,10.08
2023-04-07T06:00:31.362Z,10.16
2023-04-07T06:05:43.743Z,9.88
2023-04-07T06:10:48.118Z,10.15
2023-04-07T06:15:50.824Z,10.07
2023-04-07T06:20:54.937Z,10.14
2023-04-07T06:25:57.546Z,10.20
2023-04-07T06:31:00.547Z,10.23
2023-04-07T06:36:05.272Z,10.32
2023-04-07T06:41:11.528Z,10.32
2023-04-07T06:46:14.244Z,10.40
2023-04-07T06:51:18.774Z,10.44
2023-04-07T06:56:22.033Z,10.38
2023-04-07T07:01:24.635Z,10.41
2023-04-07T07:06:28.623Z,10.09
2023-04-07T07:11:31.371Z,10.37
2023-04-07T07:16:33.916Z,10.36
2023-04-07T07:21:38.021Z,10.12
2023-04-07T07:26:43.426Z,10.36
2023-04-07T07:31:46.749Z,10.43
2023-04-07T07:36:51.208Z,10.45
2023-04-07T07:41:53.816Z,10.59
2023-04-07T07:46:56.366Z,10.61
2023-04-07T07:52:00.832Z,10.65
2023-04-07T07:57:04.355Z,10.45
2023-04-07T08:02:07.428Z,10.49
2023-04-07T08:07:12.392Z,10.43
2023-04-07T08:12:15.017Z,10.57
2023-04-07T08:17:17.906Z,10.62
2023-04-07T08:22:21.820Z,10.62
2023-04-07T08:27:24.430Z,10.66
2023-04-07T08:32:27.021Z,10.86
2023-04-07T08:37:31.560Z,10.81
2023-04-07T08:42:36.159Z,10.81
2023-04-07T08:47:41.421Z,10.74
2023-04-07T08:52:50.839Z,10.56
2023-04-07T08:57:54.336Z,10.57
2023-04-07T09:02:57.414Z,10.94
2023-04-07T09:08:01.604Z,10.95
2023-04-07T09:13:04.230Z,10.95
2023-04-07T09:18:06.966Z,10.98
2023-04-07T09:23:28.692Z,11.10
2023-04-07T09:28:42.753Z,11.14
2023-04-07T09:33:45.449Z,11.24
2023-04-07T09:38:49.562Z,11.22
2023-04-07T09:43:58.370Z,11.34
2023-04-07T09:49:04.952Z,11.41
2023-04-07T10:00:22.653Z,11.62
2023-04-07T10:05:26.815Z,11.63
2023-04-07T10:10:59.381Z,11.37
2023-04-07T10:16:08.622Z,11.27
2023-04-07T10:21:17.828Z,11.28
2023-04-07T10:27:06.469Z,11.28
2023-04-07T10:32:12.128Z,11.19
2023-04-07T10:37:18.881Z,11.20
2023-04-07T10:43:05.862Z,11.41
2023-04-07T10:48:17.033Z,11.50
2023-04-07T10:53:32.780Z,11.58
2023-04-07T10:58:46.241Z,10.76
2023-04-07T11:04:05.198Z,11.43
2023-04-07T11:09:24.220Z,11.31
2023-04-07T11:14:40.604Z,11.19
2023-04-07T11:19:59.012Z,11.22
2023-04-07T11:25:04.702Z,11.26
2023-04-07T11:30:18.385Z,10.63
2023-04-07T11:35:29.862Z,11.04
2023-04-07T11:40:41.327Z,11.52
2023-04-07T11:45:49.173Z,11.55
2023-04-07T11:50:57.431Z,11.49
2023-04-07T11:56:06.113Z,10.71
2023-04-07T12:01:09.805Z,11.42
2023-04-07T12:06:29.421Z,11.32
2023-04-07T12:11:50.636Z,11.40
2023-04-07T12:23:58.713Z,11.42
2023-04-07T12:29:39.511Z,11.32
2023-04-07T12:34:48.315Z,11.38
2023-04-07T12:39:57.314Z,11.53
2023-04-07T12:45:01.241Z,11.45
2023-04-07T12:56:41.072Z,11.54
2023-04-07T13:01:50.770Z,10.61
2023-04-07T13:07:00.009Z,11.22
2023-04-07T13:12:16.629Z,11.59
2023-04-07T13:17:24.930Z,11.48
2023-04-07T13:22:49.211Z,11.16
2023-04-07T13:28:01.038Z,10.90
2023-04-07T13:33:07.053Z,11.17
2023-04-07T13:38:55.243Z,10.96
2023-04-07T13:44:00.864Z,11.04
2023-04-07T13:49:05.109Z,10.73
2023-04-07T13:54:11.326Z,10.88
2023-04-07T13:59:25.049Z,10.89
2023-04-07T14:04:35.520Z,11.00
2023-04-07T14:09:43.072Z,10.86
2023-04-07T14:14:50.728Z,10.52
2023-04-07T14:19:56.739Z,11.08
2023-04-07T14:25:00.305Z,11.15
2023-04-07T14:30:06.577Z,11.20
2023-04-07T14:35:11.378Z,11.19
2023-04-07T14:40:15.834Z,11.01
2023-04-07T14:45:25.289Z,11.23
2023-04-07T14:50:30.479Z,11.21
2023-04-07T14:55:38.441Z,11.20
2023-04-07T15:00:44.626Z,11.37
2023-04-07T15:05:55.321Z,11.32
2023-04-07T15:11:04.726Z,11.29
2023-04-07T15:16:18.433Z,11.13
2023-04-07T15:21:28.764Z,10.99
2023-04-07T15:26:38.215Z,11.15
2023-04-07T15:31:44.802Z,11.26
2023-04-07T15:37:11.497Z,11.21
2023-04-07T15:42:17.600Z,10.62
2023-04-07T15:47:23.097Z,9.31
2023-04-07T15:52:33.437Z,10.60
2023-04-07T15:57:40.979Z,11.00
2023-04-07T16:02:51.054Z,11.16
2023-04-07T16:08:05.652Z,11.12
2023-04-07T16:18:55.691Z,11.00
2023-04-07T16:24:00.306Z,10.35
2023-04-07T16:29:23.276Z,10.94
2023-04-07T16:34:36.856Z,10.98
2023-04-07T16:39:41.676Z,10.74
2023-04-07T16:44:46.600Z,10.92
2023-04-07T16:49:57.906Z,10.93
2023-04-07T16:55:14.077Z,10.86
2023-04-07T17:00:27.052Z,10.98
2023-04-07T17:05:33.857Z,10.98
2023-04-07T17:10:44.225Z,11.03
2023-04-07T17:15:50.602Z,10.86
2023-04-07T17:21:46.914Z,10.99
2023-04-07T17:27:00.305Z,10.83
2023-04-07T17:32:08.436Z,10.91
2023-04-07T17:37:17.973Z,10.75
2023-04-07T17:42:31.297Z,10.77
2023-04-07T17:47:39.733Z,10.85
2023-04-07T17:52:43.923Z,10.93
2023-04-07T17:57:52.746Z,10.63
2023-04-07T18:03:13.807Z,10.93
2023-04-07T18:08:18.878Z,10.30
2023-04-07T18:13:45.091Z,10.87
2023-04-07T18:19:08.092Z,10.77
2023-04-07T18:24:42.894Z,10.17
2023-04-07T18:30:10.573Z,10.70
2023-04-07T18:35:42.537Z,10.57
2023-04-07T18:41:09.488Z,10.65
2023-04-07T18:46:35.520Z,10.61
2023-04-07T18:52:07.672Z,10.57
2023-04-07T18:57:33.473Z,10.29
2023-04-07T19:03:08.277Z,10.48
2023-04-07T19:08:34.135Z,10.45
2023-04-07T19:14:19.866Z,10.36
2023-04-07T19:19:54.415Z,10.33
2023-04-07T19:25:19.298Z,10.48
2023-04-07T19:30:46.944Z,10.48
2023-04-07T19:36:15.954Z,10.34
2023-04-07T19:41:43.394Z,10.16
2023-04-07T19:47:08.550Z,10.32
2023-04-07T19:52:39.246Z,10.36
2023-04-07T19:58:07.169Z,10.43
2023-04-07T20:03:33.536Z,10.40
2023-04-07T20:09:19.901Z,10.39
2023-04-07T20:14:54.600Z,10.33
2023-04-07T20:20:30.557Z,10.47
2023-04-07T20:25:57.797Z,10.43
2023-04-07T20:31:35.409Z,10.32
2023-04-07T20:37:05.726Z,10.35
2023-04-07T20:42:50.156Z,10.40
2023-04-07T20:48:27.399Z,10.39
2023-04-07T20:54:00.418Z,10.44
2023-04-07T20:59:30.507Z,10.43
2023-04-07T21:04:49.452Z,10.25
2023-04-07T21:09:56.913Z,10.22
2023-04-07T21:15:06.092Z,10.43
2023-04-07T21:20:20.957Z,10.32
2023-04-07T21:25:29.504Z,10.29
2023-04-07T21:30:47.028Z,10.28
2023-04-07T21:35:51.866Z,10.19
2023-04-07T21:40:59.100Z,9.75
2023-04-07T21:46:17.043Z,10.19
2023-04-07T21:51:34.049Z,9.89
2023-04-07T21:56:42.019Z,10.21
2023-04-07T22:01:57.775Z,10.24
2023-04-07T22:07:06.670Z,10.12
2023-04-07T22:12:17.553Z,10.26
2023-04-07T22:17:24.618Z,10.05
2023-04-07T22:22:29.359Z,10.27
2023-04-07T22:27:37.528Z,10.20
2023-04-07T22:32:48.482Z,10.30
2023-04-07T22:37:52.685Z,10.30
2023-04-07T22:43:04.310Z,10.15
2023-04-07T22:48:13.968Z,10.22
2023-04-07T22:53:19.394Z,10.17
2023-04-07T22:58:24.144Z,10.07
2023-04-07T23:03:31.944Z,10.25
2023-04-07T23:08:38.744Z,10.23
2023-04-07T23:13:43.582Z,9.94
2023-04-07T23:18:52.569Z,10.15
2023-04-07T23:23:57.671Z,10.07
2023-04-07T23:29:03.191Z,10.12
2023-04-07T23:34:10.357Z,10.03
2023-04-07T23:39:38.197Z,10.07
2023-04-07T23:44:48.487Z,10.07
2023-04-07T23:49:55.299Z,10.09
2023-04-07T23:54:59.727Z,10.10
